NCAR-RAP Real-Time Weather Data

Output produced by METARs form (26 September 2017  09:03 UTC)
found at http://weather.rap.ucar.edu/surface/
 
Conditions at: KSDF observed 26 September 2017  08:56 UTC
Temperature: 21.7°C (71°F)
Dewpoint: 18.9°C (66°F) [RH = 84%]
Pressure (altimeter): 29.99 inches Hg (1015.7 mb)
[Sea-level pressure: 1014.9 mb]
Winds: from the E (100 degrees) at 3 MPH (3 knots; 1.6 m/s)
Visibility: 8 miles (13 km)
Ceiling: at least 12,000 feet AGL
Clouds: sky clear below 12,000 feet AGL
Present Weather: no significant weather observed at this time
KSDF 260856Z 10003KT 8SM CLR 22/19 A2999 RMK AO2 SLP149 T02170189 50001